createdAt,value
2023-05-14T00:14:24.427Z,100.00
2023-05-14T00:29:26.012Z,100.00
2023-05-14T00:44:27.595Z,100.00
2023-05-14T00:59:29.229Z,100.00
2023-05-14T01:14:30.854Z,100.00
2023-05-14T01:29:32.447Z,100.00
2023-05-14T01:44:34.255Z,100.00
2023-05-14T01:59:36.196Z,100.00
2023-05-14T02:14:37.833Z,100.00
2023-05-14T02:29:39.705Z,100.00
2023-05-14T02:44:41.348Z,100.00
2023-05-14T02:59:42.973Z,100.00
2023-05-14T03:14:44.987Z,100.00
2023-05-14T03:29:46.937Z,100.00
2023-05-14T03:44:48.552Z,100.00
2023-05-14T03:59:50.642Z,100.00
2023-05-14T04:14:52.346Z,100.00
2023-05-14T04:29:54.140Z,100.00
2023-05-14T04:44:55.830Z,100.00
2023-05-14T04:59:57.562Z,100.00
2023-05-14T05:14:59.213Z,100.00
2023-05-14T05:30:00.906Z,100.00
2023-05-14T05:45:02.564Z,100.00
2023-05-14T06:00:13.200Z,100.00
2023-05-14T06:15:14.734Z,100.00
2023-05-14T06:30:16.416Z,100.00
2023-05-14T06:45:18.063Z,100.00
2023-05-14T07:00:19.887Z,100.00
2023-05-14T07:15:21.724Z,100.00
2023-05-14T07:30:23.511Z,100.00
2023-05-14T07:45:25.427Z,100.00
2023-05-14T08:00:27.299Z,100.00
2023-05-14T08:15:28.981Z,100.00
2023-05-14T08:30:30.612Z,100.00
2023-05-14T08:45:34.369Z,100.00
2023-05-14T09:00:36.045Z,100.00
2023-05-14T09:15:37.627Z,100.00
2023-05-14T09:30:39.267Z,100.00
2023-05-14T09:45:40.907Z,100.00
2023-05-14T10:00:42.620Z,100.00
2023-05-14T10:15:44.313Z,100.00
2023-05-14T10:30:46.435Z,100.00
2023-05-14T10:45:48.083Z,100.00
2023-05-14T11:00:50.268Z,100.00
2023-05-14T11:15:51.919Z,100.00
2023-05-14T11:30:53.562Z,100.00
2023-05-14T11:45:55.196Z,100.00
2023-05-14T12:00:57.166Z,100.00
2023-05-14T12:15:58.833Z,100.00
2023-05-14T12:31:00.541Z,100.00
2023-05-14T12:46:02.159Z,95.97
2023-05-14T13:01:03.862Z,99.19
2023-05-14T13:16:05.458Z,86.84
2023-05-14T13:31:07.253Z,92.34
2023-05-14T13:46:09.034Z,100.00
2023-05-14T14:01:10.702Z,100.00
2023-05-14T14:16:12.357Z,100.00
2023-05-14T14:31:14.080Z,100.00
2023-05-14T14:46:15.860Z,93.49
2023-05-14T15:01:17.499Z,85.35
2023-05-14T15:16:19.280Z,93.83
2023-05-14T15:31:21.041Z,87.10
2023-05-14T15:46:25.932Z,91.84
2023-05-14T16:01:27.637Z,86.70
2023-05-14T16:16:29.306Z,76.92
2023-05-14T16:31:31.714Z,74.57
2023-05-14T16:46:33.442Z,79.93
2023-05-14T17:01:35.213Z,75.58
2023-05-14T17:16:38.908Z,75.66
2023-05-14T17:31:40.788Z,80.55
2023-05-14T17:46:42.590Z,85.01
2023-05-14T18:01:44.219Z,96.51
2023-05-14T18:16:45.938Z,100.00
2023-05-14T18:31:47.584Z,100.00
2023-05-14T18:46:49.272Z,100.00
2023-05-14T19:01:51.463Z,100.00
2023-05-14T19:16:53.127Z,100.00
2023-05-14T19:31:54.781Z,100.00
2023-05-14T19:46:56.494Z,100.00
2023-05-14T20:01:58.173Z,100.00
2023-05-14T20:17:00.168Z,100.00
2023-05-14T20:32:01.855Z,100.00
2023-05-14T20:47:03.546Z,100.00
2023-05-14T21:02:05.202Z,100.00
2023-05-14T21:17:07.001Z,100.00
2023-05-14T21:32:08.612Z,100.00
2023-05-14T21:47:10.242Z,100.00
2023-05-14T22:02:11.882Z,100.00
2023-05-14T22:17:13.515Z,100.00
2023-05-14T22:32:15.110Z,100.00
2023-05-14T22:47:16.732Z,100.00
2023-05-14T23:02:18.344Z,100.00
2023-05-14T23:17:19.931Z,100.00
2023-05-14T23:32:21.560Z,100.00
2023-05-14T23:47:23.194Z,100.00
